• Join FlightAware (Why Join?)
  • Login
  • US Flag 
07:27AM EDT


 

Airport Tracker/Info


-or-


 

Live Flight TrackerFlight Track Log ✈ UAL1519 ✈ 17-May-2013 ✈ KEWR - KMCO

Flight Track Log - Related Links

Times and Time Zones

All times are in EDT time to prevent confusion due to time zone crossing. See the UAL1519 flight status page for this flight to view local times or setup timezone preferences in your user account.

Time Position Orientation Groundspeed Altitude Reporting Facility
EDT Latitude Longitude Course Direction KTS MPH feet Rate Location/Type
11:56AM 40.7090 -74.1500 41° Northeast 169 194 1,500  Level FlightAware
11:57AM 40.7300 -74.1170 50° Northeast 214 246 2,700 1,740 Climbing FlightAware
11:57AM 40.7406 -74.1004 50° Northeast 245 282 2,900 300 Climbing FlightAware ADS-B
11:57AM 40.7452 -74.0951 41° Northeast 249 287 2,800  Descending FlightAware ADS-B
11:57AM 40.7495 -74.0917 31° Northeast 253 291 2,900 720 Climbing FlightAware ADS-B
11:57AM 40.7531 -74.0894 26° Northeast 253 291 2,900 2,160 Level FlightAware ADS-B
11:57AM 40.7617 -74.0867 13° North 252 290 3,300 3,180 Climbing FlightAware ADS-B
11:57AM 40.7677 -74.0865 North 250 288 3,600 3,960 Climbing FlightAware ADS-B
11:57AM 40.7720 -74.0873 352° North 250 288 3,900 3,960 Climbing FlightAware ADS-B
11:57AM 40.7780 -74.0896 344° North 251 289 4,200 3,000 Climbing FlightAware ADS-B
11:57AM 40.7821 -74.0918 338° Northwest 250 288 4,400 2,160 Climbing FlightAware ADS-B
11:58AM 40.7897 -74.0987 325° Northwest 247 284 4,600 1,380 Climbing FlightAware ADS-B
11:58AM 40.7939 -74.1047 313° West 246 283 4,700 1,200 Climbing FlightAware ADS-B
11:58AM 40.7962 -74.1090 305° West 244 281 4,800 840 Climbing FlightAware ADS-B
11:58AM 40.7981 -74.1136 299° West 245 282 4,800  Level FlightAware ADS-B
11:58AM 40.7996 -74.1188 291° West 246 283 4,800  Level FlightAware ADS-B
11:58AM 40.8007 -74.1246 284° West 249 287 4,800  Level FlightAware ADS-B
11:58AM 40.8012 -74.1325 275° West 252 290 4,800  Level FlightAware ADS-B
11:58AM 40.8008 -74.1392 265° West 255 293 4,800 720 Level FlightAware ADS-B
11:58AM 40.8000 -74.1445 259° West 258 297 4,900 360 Climbing FlightAware ADS-B
11:58AM 40.7955 -74.1638 253° West 267 307 4,900  Level FlightAware ADS-B
11:59AM 40.7886 -74.1878 249° West 267 307 4,900  Level FlightAware ADS-B
11:59AM 40.7816 -74.2126 250° West 269 310 4,900  Level FlightAware ADS-B
11:59AM 40.7747 -74.2374 250° West 267 307 4,900 180 Level FlightAware ADS-B
12:00PM 40.7595 -74.2944 251° West 265 305 5,100 1,140 Climbing FlightAware ADS-B
12:00PM 40.7528 -74.3208 251° West 262 302 6,000 3,660 Climbing FlightAware ADS-B
12:00PM 40.7461 -74.3460 251° West 260 299 7,200 4,140 Climbing FlightAware ADS-B
12:01PM 40.7394 -74.3708 250° West 259 298 8,300 3,720 Climbing FlightAware ADS-B
12:01PM 40.7346 -74.3886 250° West 261 300 9,000 3,480 Climbing FlightAware ADS-B
12:01PM 40.7296 -74.4073 251° West 259 298 9,700 3,360 Climbing FlightAware ADS-B
12:01PM 40.7280 -74.4127 249° West 264 304 9,900 3,480 Climbing FlightAware ADS-B
12:02PM 40.7157 -74.4592 251° West 271 312 11,700 3,420 Climbing FlightAware ADS-B
12:02PM 40.7073 -74.4889 250° West 279 321 12,700 3,060 Climbing FlightAware ADS-B
12:02PM 40.7018 -74.5002 237° Southwest 287 330 13,100 3,000 Climbing FlightAware ADS-B
12:02PM 40.6966 -74.5078 228° Southwest 293 337 13,400 3,000 Climbing FlightAware ADS-B
12:02PM 40.6918 -74.5131 220° Southwest 279 321 13,600 3,000 Climbing FlightAware ADS-B
12:02PM 40.6899 -74.5148 214° Southwest 300 345 13,700 3,780 Climbing FlightAware ADS-B
12:02PM 40.6671 -74.5268 202° Southwest 315 362 14,800 3,060 Climbing FlightAware ADS-B
12:03PM 40.6448 -74.5318 190° South 322 371 15,400 1,680 Climbing FlightAware ADS-B
12:03PM 40.5995 -74.5399 188° South 330 380 16,100 1,560 Climbing FlightAware ADS-B
12:04PM 40.5754 -74.5450 189° South 327 376 16,600 1,560 Climbing FlightAware ADS-B
12:04PM 40.5610 -74.5515 199° South 322 371 16,800 900 Climbing FlightAware ADS-B
12:04PM 40.5483 -74.5598 206° Southwest 315 362 16,900 360 Climbing FlightAware ADS-B
12:04PM 40.5421 -74.5653 214° Southwest 310 357 16,900  Level FlightAware ADS-B
12:04PM 40.5339 -74.5740 219° Southwest 304 350 16,900  Level FlightAware ADS-B
12:04PM 40.5303 -74.5787 225° Southwest 303 349 16,900  Level FlightAware ADS-B
12:04PM 40.5226 -74.5907 230° Southwest 304 350 16,900 720 Level FlightAware ADS-B
12:04PM 40.5169 -74.6025 238° Southwest 304 350 17,100 1,620 Climbing FlightAware ADS-B
12:05PM 40.5006 -74.6557 248° West 326 375 17,900 1,920 Climbing FlightAware ADS-B
12:05PM 40.4848 -74.7143 250° West 339 390 19,100 2,340 Climbing FlightAware ADS-B
12:06PM 40.4661 -74.7834 250° West 349 402 20,500 2,580 Climbing FlightAware ADS-B
12:06PM 40.4496 -74.8445 250° West 354 407 21,900 2,640 Climbing FlightAware ADS-B
12:07PM 40.4329 -74.9055 250° West 357 411 23,200 2,340 Climbing FlightAware ADS-B
12:07PM 40.4261 -74.9304 250° West 359 413 23,600 2,100 Climbing FlightAware ADS-B
12:07PM 40.4228 -74.9409 248° West 362 417 23,800 2,400 Climbing FlightAware ADS-B
12:07PM 40.4192 -74.9508 244° Southwest 365 420 24,000 2,220 Climbing FlightAware ADS-B
12:08PM 40.4099 -74.9716 240° Southwest 371 427 24,400 2,160 Climbing FlightAware ADS-B
12:08PM 40.3950 -74.9967 232° Southwest 380 437 24,900 1,980 Climbing FlightAware ADS-B
12:08PM 40.3572 -75.0504 227° Southwest 389 448 25,900 1,620 Climbing FlightAware ADS-B
12:09PM 40.3188 -75.1029 226° Southwest 401 461 26,600 1,440 Climbing FlightAware ADS-B
12:09PM 40.2790 -75.1577 226° Southwest 410 472 27,400 1,500 Climbing FlightAware ADS-B
12:10PM 40.2366 -75.2166 227° Southwest 420 483 28,200 1,560 Climbing FlightAware ADS-B
12:10PM 40.1959 -75.2730 227° Southwest 425 489 29,100 1,620 Climbing FlightAware ADS-B
12:11PM 40.1550 -75.3298 227° Southwest 431 496 29,900 1,500 Climbing FlightAware ADS-B
12:11PM 40.1099 -75.3925 227° Southwest 438 504 30,700 1,560 Climbing FlightAware ADS-B
12:12PM 40.0671 -75.4514 226° Southwest 437 503 31,600 2,040 Climbing FlightAware ADS-B
12:12PM 40.0253 -75.5090 227° Southwest 432 497 32,800 2,160 Climbing FlightAware ADS-B
12:13PM 39.9816 -75.5692 227° Southwest 428 493 33,900 1,920 Climbing FlightAware ADS-B
12:14PM 39.9343 -75.6342 227° Southwest 425 489 35,000 1,740 Climbing FlightAware ADS-B
12:14PM 39.8955 -75.6915 229° Southwest 419 482 35,800 1,440 Climbing FlightAware ADS-B
12:15PM 39.8572 -75.7521 231° Southwest 419 482 36,500 1,200 Climbing FlightAware ADS-B
12:15PM 39.7954 -75.8507 231° Southwest 420 483 37,500 1,080 Climbing FlightAware ADS-B
12:16PM 39.7581 -75.9097 231° Southwest 419 482 38,000 480 Climbing FlightAware ADS-B
12:16PM 39.7200 -75.9700 231° Southwest 415 478 38,000  Level FlightAware ADS-B
12:17PM 39.6826 -76.0290 231° Southwest 414 476 38,000  Level FlightAware ADS-B
12:17PM 39.6421 -76.0929 231° Southwest 418 481 38,000  Level FlightAware ADS-B
12:18PM 39.5997 -76.1595 230° Southwest 421 484 38,000  Level FlightAware ADS-B
12:19PM 39.5547 -76.2288 230° Southwest 425 489 38,000  Level FlightAware ADS-B
12:19PM 39.5114 -76.2949 230° Southwest 426 490 38,000  Level FlightAware ADS-B
12:20PM 39.4715 -76.3555 230° Southwest 427 491 38,000  Level FlightAware ADS-B
12:20PM 39.4316 -76.4170 230° Southwest 428 493 38,000  Level FlightAware ADS-B
12:21PM 39.3650 -76.5222 231° Southwest 429 494 38,000  Level FlightAware ADS-B
12:22PM 39.3250 -76.5848 230° Southwest 429 494 38,000  Level FlightAware ADS-B
12:22PM 39.2819 -76.6521 230° Southwest 428 493 38,000  Level FlightAware ADS-B
12:23PM 39.2392 -76.7186 230° Southwest 428 493 38,000  Level FlightAware ADS-B
12:23PM 39.1935 -76.7897 230° Southwest 429 494 38,000  Level FlightAware ADS-B
12:24PM 39.1515 -76.8547 230° Southwest 429 494 38,000  Level FlightAware ADS-B
12:25PM 39.1111 -76.9172 230° Southwest 428 493 38,000  Level FlightAware ADS-B
12:25PM 39.0626 -76.9917 230° Southwest 428 493 38,000  Level FlightAware ADS-B
12:26PM 39.0291 -77.0360 226° Southwest 433 498 38,000  Level FlightAware ADS-B
12:26PM 38.9776 -77.0942 221° Southwest 435 501 38,000  Level FlightAware ADS-B
12:27PM 38.9225 -77.1542 220° Southwest 436 502 38,000  Level FlightAware ADS-B
12:27PM 38.8751 -77.2057 220° Southwest 436 502 38,000  Level FlightAware ADS-B
12:28PM 38.8136 -77.2727 220° Southwest 435 501 38,000  Level FlightAware ADS-B
12:28PM 38.7675 -77.3232 221° Southwest 435 501 38,000  Level FlightAware ADS-B
12:29PM 38.7130 -77.3820 220° Southwest 434 499 38,000  Level FlightAware
12:30PM 38.6629 -77.4367 220° Southwest 436 502 38,000  Level FlightAware ADS-B
12:30PM 38.5810 -77.5250 220° Southwest 435 501 38,000  Level FlightAware
12:31PM 38.5455 -77.5638 221° Southwest 436 502 38,000  Level FlightAware ADS-B
12:32PM 38.4667 -77.6486 220° Southwest 436 502 38,000  Level FlightAware ADS-B
12:33PM 38.3910 -77.7300 220° Southwest 434 499 38,000  Level FlightAware
12:33PM 38.3300 -77.7950 220° Southwest 432 497 38,000  Level FlightAware
12:34PM 38.2590 -77.8710 220° Southwest 431 496 38,000  Level FlightAware
12:35PM 38.1950 -77.9400 220° Southwest 430 495 38,000  Level FlightAware
12:35PM 38.1330 -78.0070 220° Southwest 429 494 38,000  Level FlightAware
12:36PM 38.0710 -78.0720 220° Southwest 428 493 38,000  Level FlightAware
12:37PM 38.0110 -78.1360 220° Southwest 427 491 38,000  Level FlightAware
12:37PM 37.9380 -78.2070 217° Southwest 427 491 38,000  Level FlightAware
12:38PM 37.8740 -78.2670 217° Southwest 426 490 38,000  Level FlightAware
12:39PM 37.8060 -78.3320 217° Southwest 424 488 38,000  Level FlightAware
12:40PM 37.7340 -78.4000 217° Southwest 424 488 38,000  Level FlightAware
12:40PM 37.6710 -78.4600 217° Southwest 423 487 38,000  Level FlightAware
12:41PM 37.6100 -78.5180 217° Southwest 423 487 38,000  Level FlightAware
12:42PM 37.5410 -78.5840 217° Southwest 422 486 38,000  Level FlightAware
12:42PM 37.4770 -78.6440 217° Southwest 421 484 38,000  Level FlightAware
12:43PM 37.4190 -78.6990 217° Southwest 420 483 38,000  Level FlightAware
12:44PM 37.3470 -78.7660 217° Southwest 420 483 38,000  Level FlightAware
12:44PM 37.2810 -78.8280 217° Southwest 420 483 38,000  Level FlightAware
12:45PM 37.2250 -78.8790 216° Southwest 420 483 38,000  Level FlightAware
12:46PM 37.1720 -78.9270 216° Southwest 420 483 38,000  Level FlightAware
12:47PM 37.0880 -79.0080 218° Southwest 421 484 38,000  Level FlightAware
12:48PM 37.0000 -79.0890 216° Southwest 421 484 38,000  Level FlightAware
12:48PM 36.9320 -79.1530 217° Southwest 424 488 38,000  Level FlightAware
12:49PM 36.8580 -79.2210 216° Southwest 426 490 38,000  Level FlightAware
12:50PM 36.8090 -79.2660 216° Southwest 426 490 38,000  Level FlightAware
12:50PM 36.7550 -79.3150 216° Southwest 426 490 38,000  Level FlightAware
12:51PM 36.6670 -79.3970 217° Southwest 431 496 38,000  Level FlightAware
12:52PM 36.5990 -79.4600 217° Southwest 432 497 38,000  Level FlightAware
12:52PM 36.5400 -79.5130 216° Southwest 432 497 38,000  Level FlightAware
12:53PM 36.4850 -79.5630 216° Southwest 432 497 38,000  Level FlightAware
12:54PM 36.4300 -79.6120 216° Southwest 432 497 38,000  Level FlightAware
12:55PM 36.3610 -79.6740 216° Southwest 432 497 38,000  Level FlightAware
12:55PM 36.3060 -79.7240 216° Southwest 432 497 38,000  Level FlightAware
12:56PM 36.2510 -79.7730 216° Southwest 432 497 38,000  Level FlightAware
12:57PM 36.1960 -79.8230 216° Southwest 432 497 38,000  Level FlightAware
12:57PM 36.1410 -79.8720 216° Southwest 432 497 38,000  Level FlightAware
12:58PM 36.0730 -79.9340 216° Southwest 432 497 38,000  Level FlightAware
12:59PM 36.0180 -79.9840 216° Southwest 432 497 38,000  Level FlightAware
12:59PM 35.9630 -80.0330 216° Southwest 432 497 38,000  Level FlightAware
01:00PM 35.9080 -80.0820 216° Southwest 432 497 38,000  Level FlightAware
01:01PM 35.8530 -80.1320 216° Southwest 432 497 38,000  Level FlightAware
01:02PM 35.7840 -80.1930 216° Southwest 432 497 38,000  Level FlightAware
01:05PM 35.0390 -80.1570 178° South 38,000  Level FlightAware
01:06PM 34.9180 -80.2020 197° South 443 510 38,000  Level FlightAware
01:07PM 34.8400 -80.2310 197° South 443 510 38,000  Level FlightAware
01:08PM 34.7550 -80.2620 197° South 444 511 38,000  Level FlightAware
01:08PM 34.6770 -80.2900 196° South 444 511 38,000  Level FlightAware
01:09PM 34.5840 -80.3250 197° South 445 512 38,000  Level FlightAware
01:10PM 34.5050 -80.3540 197° South 446 513 38,000  Level FlightAware
01:11PM 34.4250 -80.3830 197° South 446 513 38,000  Level FlightAware
01:11PM 34.3460 -80.4120 197° South 446 513 38,000  Level FlightAware
01:12PM 34.2520 -80.4470 197° South 446 513 38,000  Level FlightAware
01:13PM 34.1050 -80.4930 195° South 448 516 38,000  Level FlightAware
01:14PM 33.9960 -80.5210 192° South 449 517 38,000  Level FlightAware
01:15PM 33.9050 -80.5430 191° South 449 517 38,000  Level FlightAware
01:16PM 33.8260 -80.5620 191° South 450 518 38,000  Level FlightAware
01:16PM 33.7778 -80.5839 191° South 453 521 38,000  Level Jacksonville Center
01:17PM 33.6572 -80.6144 192° South 447 514 38,000  Level Jacksonville Center
01:18PM 33.5325 -80.6425 191° South 447 514 38,000  Level Jacksonville Center
01:19PM 33.4100 -80.6731 192° South 447 514 38,000  Level Jacksonville Center
01:20PM 33.2894 -80.7033 192° South 447 514 38,000  Level Jacksonville Center
01:21PM 33.1647 -80.7336 191° South 447 514 38,000  Level Jacksonville Center
01:22PM 33.0422 -80.7639 192° South 447 514 38,000  Level Jacksonville Center
01:28PM 32.3980 -80.8970 192° South 445 512 38,000  Level FlightAware
01:28PM 32.2960 -80.9110 187° South 444 511 38,000  Level FlightAware
01:29PM 32.2240 -80.9210 187° South 444 511 38,000  Level FlightAware
01:30PM 32.1250 -80.9350 187° South 443 510 38,000  Level FlightAware
01:30PM 32.0270 -80.9480 186° South 442 509 38,000  Level FlightAware
01:31PM 31.9190 -80.9630 187° South 441 507 38,000  Level FlightAware
01:32PM 31.8270 -80.9770 187° South 441 507 38,000  Level FlightAware
01:33PM 31.7670 -80.9850 186° South 441 507 38,000  Level FlightAware
01:33PM 31.6680 -80.9990 187° South 441 507 38,000  Level FlightAware
01:34PM 31.5860 -81.0100 187° South 441 507 38,000  Level FlightAware
01:35PM 31.4850 -81.0240 187° South 441 507 38,000  Level FlightAware
01:36PM 31.3720 -81.0400 187° South 442 509 38,000  Level FlightAware
01:36PM 31.3040 -81.0480 186° South 442 509 38,000  Level FlightAware
01:37PM 31.2350 -81.0570 186° South 442 509 38,000  Level FlightAware
01:38PM 31.1490 -81.0670 186° South 442 509 38,000  Level FlightAware
01:39PM 31.0790 -81.0760 186° South 442 509 38,000  Level FlightAware
01:39PM 31.0100 -81.0840 186° South 442 509 38,000  Level FlightAware
01:40PM 30.9410 -81.0930 186° South 442 509 38,000  Level FlightAware
01:41PM 30.8720 -81.1010 186° South 442 509 38,000  Level FlightAware
01:41PM 30.8030 -81.1100 186° South 442 509 38,000  Level FlightAware
01:42PM 30.7160 -81.1200 186° South 442 509 38,000  Level FlightAware
01:43PM 30.6470 -81.1290 186° South 442 509 38,000  Level FlightAware
01:43PM 30.5780 -81.1370 186° South 442 509 38,000 -3,000 Level FlightAware
01:44PM 30.3150 -81.1330 179° South 463 533 34,000 -3,360 Descending FlightAware
01:45PM 30.2210 -81.1300 178° South 467 537 33,300 -960 Descending FlightAware
01:46PM 30.1380 -81.1280 179° South 466 536 32,700 -480 Descending FlightAware
01:46PM 30.0650 -81.1260 179° South 466 536 32,700  Level FlightAware
01:47PM 29.9920 -81.1250 179° South 466 536 32,700  Level FlightAware
01:48PM 29.9000 -81.1230 179° South 466 536 32,700  Level FlightAware
01:48PM 29.8270 -81.1220 179° South 466 536 32,700  Level FlightAware
01:49PM 29.7540 -81.1200 179° South 466 536 32,700  Level FlightAware
01:50PM 29.6620 -81.1180 179° South 466 536 32,700  Level FlightAware
01:51PM 29.5890 -81.1170 179° South 466 536 32,700  Level FlightAware
01:51PM 29.5150 -81.1150 179° South 466 536 32,700  Level FlightAware
01:52PM 29.4420 -81.1140 179° South 466 536 32,700  Level FlightAware
01:53PM 29.3690 -81.1120 179° South 466 536 32,700 -9,240 Level FlightAware
01:54PM 29.1820 -81.0940 175° South 374 430 15,100 -7,080 Descending FlightAware
01:55PM 29.0160 -81.0810 176° South 353 406 12,100 -1,440 Descending FlightAware
01:56PM 28.9560 -81.0740 174° South 323 372 11,800 -1,200 Descending FlightAware
01:58PM 28.7680 -81.0840 183° South 265 305 8,600 -1,620 Descending FlightAware
01:59PM 28.7600 -81.1170 255° West 278 320 7,500 -1,560 Descending FlightAware
02:00PM 28.7430 -81.2190 259° West 233 268 6,200 -720 Descending FlightAware
02:01PM 28.6970 -81.2790 229° Southwest 193 222 5,800 -960 Descending FlightAware
02:02PM 28.6420 -81.3030 201° Southwest 187 215 4,000 -1,080 Descending FlightAware
02:05PM 28.5170 -81.3210 187° South 161 185 2,000 -840 Descending FlightAware